Time;durP1;ratioP1;P1;durP2;ratioP2;P2;SDS_P1;SDS_P2;PMS_P1;PMS_P2;Temp;Humidity;BMP_temperature;BMP_pressure;BME280_temperature;BME280_humidity;BME280_pressure;Samples;Min_cycle;Max_cycle;Signal;HPM_P1;HPM_P2
2021/12/21 00:00:40;;;;;;;19.05;17.02;;;;;;;18.50;40.20;101719.88;5053153;28;20388;-75
2021/12/21 00:03:08;;;;;;;19.00;15.70;;;;;;;18.49;40.22;101728.03;5053499;28;20045;-76
2021/12/21 00:05:36;;;;;;;19.15;16.45;;;;;;;18.50;40.22;101722.56;5059167;28;20040;-75
2021/12/21 00:08:08;;;;;;;19.00;16.50;;;;;;;18.51;40.22;101720.72;5073071;28;20044;-75
2021/12/21 00:10:36;;;;;;;17.08;15.27;;;;;;;18.50;40.29;101721.69;5054914;28;20053;-76
2021/12/21 00:13:08;;;;;;;18.17;16.25;;;;;;;18.51;40.02;101723.41;5066669;28;20037;-75
2021/12/21 00:18:50;;;;;;;17.70;15.50;;;;;;;18.51;40.18;101718.06;5035009;28;20492;-75
2021/12/21 00:23:36;;;;;;;20.45;15.95;;;;;;;18.51;40.14;101716.25;5034706;28;20052;-75
2021/12/21 00:26:06;;;;;;;18.33;16.33;;;;;;;18.53;40.05;101721.50;5053101;28;20045;-75
2021/12/21 00:28:41;;;;;;;17.75;15.82;;;;;;;18.53;40.16;101725.03;5052677;28;20049;-75
2021/12/21 00:31:09;;;;;;;18.15;15.50;;;;;;;18.53;40.16;101730.41;5052848;28;20049;-75
2021/12/21 00:33:39;;;;;;;17.70;15.90;;;;;;;18.54;39.99;101745.50;5035371;28;20048;-75
2021/12/21 00:36:08;;;;;;;16.85;14.63;;;;;;;18.53;39.94;101751.84;5064476;28;20044;-75
2021/12/21 00:38:36;;;;;;;16.48;14.23;;;;;;;18.54;40.02;101747.34;5072754;28;20487;-75
2021/12/21 00:41:03;;;;;;;16.13;14.43;;;;;;;18.56;39.94;101747.25;5054852;28;20045;-75
2021/12/21 00:43:33;;;;;;;16.42;14.55;;;;;;;18.54;40.10;101739.31;5072450;28;20071;-75
2021/12/21 00:46:02;;;;;;;16.60;14.80;;;;;;;18.56;39.85;101749.94;5037935;28;20052;-75
2021/12/21 00:48:31;;;;;;;15.52;13.93;;;;;;;18.56;39.94;101748.13;5072847;28;20053;-75
2021/12/21 00:51:02;;;;;;;16.38;14.68;;;;;;;18.56;39.85;101750.78;5072557;28;20330;-75
2021/12/21 00:53:29;;;;;;;15.75;14.05;;;;;;;18.56;39.95;101742.75;5073201;28;20051;-75
2021/12/21 00:55:57;;;;;;;15.73;13.63;;;;;;;18.57;39.90;101743.59;5072726;28;20399;-75
2021/12/21 00:58:24;;;;;;;16.08;14.38;;;;;;;18.58;39.97;101745.31;5072501;28;20048;-75
2021/12/21 01:00:52;;;;;;;15.68;14.13;;;;;;;18.58;40.00;101751.53;5072917;28;20044;-75
2021/12/21 01:03:20;;;;;;;15.88;14.27;;;;;;;18.59;39.94;101741.66;5054043;28;20464;-75
2021/12/21 01:05:58;;;;;;;15.43;13.82;;;;;;;18.60;39.95;101756.81;5072323;28;20514;-75
2021/12/21 01:08:29;;;;;;;16.48;14.48;;;;;;;18.60;39.73;101748.78;5054592;28;20044;-75
2021/12/21 01:11:11;;;;;;;14.88;13.48;;;;;;;18.60;39.91;101749.63;5072696;28;20430;-75
2021/12/21 01:16:25;;;;;;;14.38;12.88;;;;;;;18.61;40.00;101759.38;5072529;28;20040;-75
2021/12/21 01:19:16;;;;;;;13.77;12.15;;;;;;;18.61;39.87;101763.88;5072548;28;20048;-75
2021/12/21 01:21:59;;;;;;;15.60;12.88;;;;;;;18.61;39.96;101764.75;5072248;28;20055;-75
2021/12/21 01:27:16;;;;;;;14.90;12.63;;;;;;;18.62;39.92;101769.13;5074144;28;19927;-75
2021/12/21 01:35:41;;;;;;;13.50;12.02;;;;;;;18.62;40.04;101769.13;5033154;28;20053;-75
2021/12/21 01:38:22;;;;;;;15.02;13.15;;;;;;;18.63;39.94;101768.16;5032402;28;20049;-74
2021/12/21 01:40:57;;;;;;;13.15;11.57;;;;;;;18.63;39.89;101767.31;5034303;28;20064;-74
2021/12/21 01:43:41;;;;;;;13.65;12.05;;;;;;;18.63;40.04;101772.66;5033934;28;20050;-75
2021/12/21 01:51:40;;;;;;;14.10;11.95;;;;;;;18.62;40.03;101770.97;5033782;28;20057;-75
2021/12/21 01:54:08;;;;;;;14.13;12.63;;;;;;;18.62;40.08;101779.00;5033581;28;20061;-75
2021/12/21 01:56:36;;;;;;;13.88;12.50;;;;;;;18.62;40.17;101776.31;5033465;28;20153;-75
2021/12/21 01:59:03;;;;;;;13.93;11.05;;;;;;;18.61;40.10;101780.84;5033523;28;20057;-76
2021/12/21 02:01:31;;;;;;;13.85;12.35;;;;;;;18.61;40.08;101778.16;5033818;28;20049;-75
2021/12/21 02:03:59;;;;;;;12.93;11.43;;;;;;;18.63;40.09;101775.34;5033356;28;20054;-75
2021/12/21 02:06:27;;;;;;;13.73;12.30;;;;;;;18.62;40.11;101771.81;5053993;28;20388;-75
2021/12/21 02:08:56;;;;;;;13.43;11.50;;;;;;;18.63;40.12;101775.34;5075567;28;20041;-75
2021/12/21 02:11:23;;;;;;;12.55;11.18;;;;;;;18.64;40.06;101771.72;5075683;28;20044;-75
2021/12/21 02:13:52;;;;;;;13.20;11.90;;;;;;;18.63;40.33;101772.66;5056805;28;20065;-75
2021/12/21 02:16:29;;;;;;;13.30;11.68;;;;;;;18.63;40.16;101775.34;5056999;28;20059;-76
2021/12/21 02:19:08;;;;;;;12.65;11.05;;;;;;;18.63;39.99;101776.22;5075179;28;20056;-76
2021/12/21 02:21:47;;;;;;;13.40;11.80;;;;;;;18.64;40.09;101769.06;5057507;28;20123;-75
2021/12/21 02:24:20;;;;;;;12.68;11.38;;;;;;;18.64;40.09;101772.59;5075687;28;20055;-75
2021/12/21 02:29:42;;;;;;;12.88;11.55;;;;;;;18.62;40.04;101761.09;4954769;29;20297;-76
2021/12/21 02:32:12;;;;;;;12.75;11.05;;;;;;;18.63;40.02;101760.13;4955159;29;20502;-76
2021/12/21 02:34:44;;;;;;;12.38;11.10;;;;;;;18.62;40.23;101753.03;4954578;29;20534;-76
2021/12/21 02:37:12;;;;;;;13.27;11.98;;;;;;;18.62;40.18;101758.41;4954296;28;20055;-75
2021/12/21 02:39:39;;;;;;;11.15;10.05;;;;;;;18.62;40.10;101761.09;4954366;29;20151;-75
2021/12/21 02:42:07;;;;;;;14.25;12.27;;;;;;;18.61;40.21;101758.53;4954358;29;20058;-75
2021/12/21 02:44:37;;;;;;;12.40;11.10;;;;;;;18.62;40.21;101757.56;4954330;29;20063;-75
2021/12/21 02:47:05;;;;;;;12.23;10.98;;;;;;;18.62;40.27;101762.91;4954867;29;20063;-75
2021/12/21 02:49:33;;;;;;;12.35;11.05;;;;;;;18.62;40.23;101770.97;4954264;29;20469;-75
2021/12/21 02:52:00;;;;;;;12.93;11.63;;;;;;;18.61;40.31;101764.75;4954375;29;20055;-75
2021/12/21 02:54:28;;;;;;;13.93;11.85;;;;;;;18.61;40.14;101763.88;4938650;29;20098;-75
2021/12/21 02:56:55;;;;;;;12.70;11.40;;;;;;;18.61;40.40;101761.22;4954296;29;20063;-75
2021/12/21 02:59:23;;;;;;;12.43;10.90;;;;;;;18.61;40.18;101761.22;4954592;29;20062;-75
2021/12/21 03:01:50;;;;;;;12.18;10.98;;;;;;;18.60;40.14;101763.03;4954389;29;20075;-75
2021/12/21 03:04:18;;;;;;;11.45;10.35;;;;;;;18.60;40.12;101763.03;4954149;29;20054;-75
2021/12/21 03:09:43;;;;;;;11.32;10.20;;;;;;;18.60;40.16;101764.84;5054869;28;20049;-75
2021/12/21 03:12:33;;;;;;;14.95;10.75;;;;;;;18.60;40.18;101771.09;5054434;28;20045;-75
2021/12/21 03:15:00;;;;;;;11.75;10.65;;;;;;;18.60;40.13;101764.84;5054196;28;20060;-75
2021/12/21 03:17:27;;;;;;;11.00;9.90;;;;;;;18.61;40.11;101771.94;5053345;28;20488;-75
2021/12/21 03:19:55;;;;;;;12.00;10.73;;;;;;;18.61;40.17;101771.94;5053937;28;20040;-75
2021/12/21 03:22:22;;;;;;;11.65;10.45;;;;;;;18.59;40.25;101763.97;5053921;28;20456;-75
2021/12/21 03:24:50;;;;;;;11.60;10.40;;;;;;;18.60;40.11;101759.50;5054175;28;20053;-75
2021/12/21 03:27:17;;;;;;;11.50;10.27;;;;;;;18.59;40.15;101755.94;5053892;28;20041;-75
2021/12/21 03:29:44;;;;;;;11.23;10.13;;;;;;;18.59;40.20;101763.97;5052528;28;20049;-75
2021/12/21 03:32:12;;;;;;;12.10;10.85;;;;;;;18.59;40.26;101758.59;5053895;28;20048;-75
2021/12/21 03:34:39;;;;;;;12.20;10.90;;;;;;;18.59;40.20;101760.44;5053729;28;20040;-75
2021/12/21 03:37:12;;;;;;;12.13;10.50;;;;;;;18.58;40.36;101751.53;5053983;28;20067;-75
2021/12/21 03:39:44;;;;;;;13.07;11.70;;;;;;;18.60;40.21;101754.13;5034774;28;20046;-75
2021/12/21 03:42:13;;;;;;;11.48;10.32;;;;;;;18.58;40.47;101761.41;5032260;28;20049;-75
2021/12/21 03:44:41;;;;;;;11.77;10.57;;;;;;;18.58;40.56;101766.78;5032509;28;20064;-76
2021/12/21 03:47:10;;;;;;;11.55;10.35;;;;;;;18.57;40.35;101765.91;5033753;28;20049;-75
2021/12/21 03:52:17;;;;;;;11.07;9.90;;;;;;;18.57;40.54;101773.97;5033493;28;20500;-75
2021/12/21 03:54:49;;;;;;;11.93;10.73;;;;;;;18.56;40.45;101776.75;5034249;28;20388;-75
2021/12/21 03:57:16;;;;;;;11.43;10.23;;;;;;;18.56;40.47;101776.75;5033554;28;20056;-75
2021/12/21 03:59:45;;;;;;;10.98;9.82;;;;;;;18.56;40.58;101774.06;5033252;28;20053;-75
2021/12/21 04:02:13;;;;;;;11.82;10.50;;;;;;;18.56;40.64;101776.75;5033659;28;20377;-75
2021/12/21 04:04:43;;;;;;;12.02;10.82;;;;;;;18.56;40.53;101782.97;5033198;28;20050;-75
2021/12/21 04:07:10;;;;;;;11.50;10.38;;;;;;;18.55;40.55;101783.91;5050582;28;20049;-75
2021/12/21 04:09:38;;;;;;;12.43;10.48;;;;;;;18.55;40.44;101786.59;5052001;28;20052;-74
2021/12/21 04:12:06;;;;;;;11.48;10.05;;;;;;;18.54;40.61;101785.75;5053013;28;20048;-75
2021/12/21 04:14:35;;;;;;;11.85;10.65;;;;;;;18.54;40.62;101787.56;5051767;28;20051;-75
2021/12/21 04:17:03;;;;;;;12.48;11.18;;;;;;;18.53;40.37;101784.03;5053130;28;20060;-75
2021/12/21 04:19:31;;;;;;;11.30;10.18;;;;;;;18.53;40.48;101784.03;5052968;28;20049;-75
2021/12/21 04:21:58;;;;;;;11.73;10.52;;;;;;;18.54;40.20;101782.22;5053129;28;20097;-75
2021/12/21 04:24:25;;;;;;;12.00;10.25;;;;;;;18.53;40.42;101789.41;5053142;28;20040;-75
2021/12/21 04:26:53;;;;;;;12.70;10.52;;;;;;;18.53;40.42;101783.19;5052803;28;20533;-75
2021/12/21 04:29:20;;;;;;;11.23;10.10;;;;;;;18.55;40.48;101791.97;5034419;28;20055;-75
2021/12/21 04:31:48;;;;;;;10.55;9.13;;;;;;;18.54;40.56;101788.44;5053036;28;20045;-75
2021/12/21 04:34:15;;;;;;;11.63;10.40;;;;;;;18.53;40.42;101789.41;5052614;28;20045;-75
2021/12/21 04:36:45;;;;;;;12.05;9.88;;;;;;;18.53;40.60;101792.06;5052576;28;20099;-75
2021/12/21 04:39:26;;;;;;;11.07;10.02;;;;;;;18.54;40.94;101795.63;5047351;28;20362;-75
2021/12/21 04:41:54;;;;;;;11.27;10.18;;;;;;;18.53;40.70;101789.41;5049720;28;20491;-75
2021/12/21 04:44:31;;;;;;;11.93;10.68;;;;;;;18.52;40.70;101790.38;5059837;28;20594;-75
2021/12/21 04:46:59;;;;;;;10.60;9.60;;;;;;;18.53;40.40;101794.75;5055337;28;20403;-75
2021/12/21 04:49:27;;;;;;;11.20;9.88;;;;;;;18.53;40.68;101793.91;5072548;28;20081;-75
2021/12/21 04:51:54;;;;;;;11.23;9.68;;;;;;;18.54;40.69;101798.28;5054803;28;20044;-75
2021/12/21 04:54:21;;;;;;;10.57;8.95;;;;;;;18.53;40.82;101801.94;5072361;28;20043;-75
2021/12/21 04:56:49;;;;;;;10.90;9.90;;;;;;;18.52;40.60;101797.56;5072966;28;20115;-75
2021/12/21 04:59:16;;;;;;;11.48;10.27;;;;;;;18.52;40.68;101798.41;5072335;28;20391;-75
2021/12/21 05:01:44;;;;;;;10.57;9.48;;;;;;;18.51;40.78;101796.69;5074962;28;20064;-75
2021/12/21 05:04:11;;;;;;;10.32;9.13;;;;;;;18.52;40.84;101810.97;5076870;28;20498;-75
2021/12/21 05:06:38;;;;;;;10.57;9.48;;;;;;;18.51;40.70;101804.75;5076598;28;20044;-75
2021/12/21 05:09:12;;;;;;;11.95;9.82;;;;;;;18.50;40.79;101805.69;5059350;28;20040;-75
2021/12/21 05:11:43;;;;;;;10.98;9.82;;;;;;;18.51;40.73;101806.53;5076427;28;20107;-75
2021/12/21 05:14:10;;;;;;;10.93;8.98;;;;;;;18.51;40.80;101809.22;5076158;28;20391;-75
2021/12/21 05:16:38;;;;;;;12.38;9.45;;;;;;;18.49;40.86;101808.47;5076354;28;20044;-75
2021/12/21 05:19:05;;;;;;;10.68;9.57;;;;;;;18.50;40.64;101810.19;5058902;28;20051;-75
2021/12/21 05:21:33;;;;;;;11.15;9.45;;;;;;;18.50;40.72;101815.56;5076355;28;20048;-75
2021/12/21 05:24:01;;;;;;;10.52;9.43;;;;;;;18.50;40.74;101826.28;5076583;28;20040;-75
2021/12/21 05:26:29;;;;;;;10.35;9.35;;;;;;;18.49;40.61;101819.19;5076285;28;20044;-76
2021/12/21 05:28:56;;;;;;;10.40;9.30;;;;;;;18.49;40.65;101816.53;5075911;28;20048;-75
2021/12/21 05:31:24;;;;;;;12.18;10.65;;;;;;;18.48;40.83;101822.84;5076014;28;20051;-76
2021/12/21 05:33:52;;;;;;;10.52;9.52;;;;;;;18.47;40.84;101822.00;5076230;28;20040;-76
2021/12/21 05:36:20;;;;;;;9.73;8.73;;;;;;;18.46;40.80;101825.63;5057877;28;20108;-75
2021/12/21 05:38:53;;;;;;;12.63;9.90;;;;;;;18.47;40.58;101821.13;5075789;28;20422;-75
2021/12/21 05:41:28;;;;;;;12.32;9.80;;;;;;;18.47;40.95;101827.38;5057355;28;20044;-76
2021/12/21 05:43:56;;;;;;;9.30;8.40;;;;;;;18.47;40.77;101832.72;5075239;28;20399;-77
2021/12/21 05:46:23;;;;;;;11.02;9.93;;;;;;;18.48;40.79;101825.53;5075816;28;20407;-76
2021/12/21 05:48:52;;;;;;;12.52;9.57;;;;;;;18.46;40.64;101822.09;5075695;28;20049;-76
2021/12/21 05:51:20;;;;;;;11.40;9.65;;;;;;;18.46;40.80;101824.75;5057894;28;20419;-76
2021/12/21 05:53:49;;;;;;;9.30;8.40;;;;;;;18.46;40.87;101832.81;5075454;28;20036;-76
2021/12/21 05:56:16;;;;;;;9.85;8.85;;;;;;;18.46;40.77;101843.53;5075558;28;20049;-76
2021/12/21 05:58:44;;;;;;;9.82;8.85;;;;;;;18.46;40.97;101839.03;5075450;28;20071;-75
2021/12/21 06:01:12;;;;;;;9.85;8.82;;;;;;;18.45;40.89;101839.13;5075887;28;20403;-75
2021/12/21 06:03:40;;;;;;;9.88;8.88;;;;;;;18.44;40.89;101843.66;5075363;28;20395;-75
2021/12/21 06:06:12;;;;;;;10.13;9.07;;;;;;;18.44;40.98;101846.31;5075439;28;20052;-75
2021/12/21 06:08:41;;;;;;;10.27;8.95;;;;;;;18.44;40.94;101845.47;5075671;28;20051;-75
2021/12/21 06:11:11;;;;;;;9.30;8.18;;;;;;;18.43;40.99;101844.63;5075189;28;20045;-75
2021/12/21 06:26:44;;;;;;;10.38;9.40;;;;;;;18.41;40.91;101838.47;4974436;28;20058;-75
2021/12/21 06:29:12;;;;;;;9.75;8.65;;;;;;;18.41;41.06;101843.84;4974033;28;20101;-75
2021/12/21 06:31:40;;;;;;;9.38;8.48;;;;;;;18.40;40.94;101842.13;4974061;28;20055;-76
2021/12/21 06:34:08;;;;;;;9.35;8.45;;;;;;;18.41;40.95;101841.16;4974680;28;20066;-76
2021/12/21 06:36:35;;;;;;;10.15;9.15;;;;;;;18.40;40.95;101835.91;4973933;28;20051;-76
2021/12/21 06:39:05;;;;;;;9.52;8.57;;;;;;;18.40;40.92;101835.91;4974230;28;20418;-76
2021/12/21 06:41:35;;;;;;;9.55;8.65;;;;;;;18.38;41.24;101836.00;4973725;28;20066;-77
2021/12/21 06:44:04;;;;;;;8.98;8.07;;;;;;;18.39;40.92;101839.53;4973089;28;20061;-76
2021/12/21 06:46:51;;;;;;;9.82;8.88;;;;;;;18.39;40.85;101845.78;4974139;28;20058;-76
2021/12/21 06:52:05;;;;;;;10.00;9.02;;;;;;;18.40;40.98;101846.63;4974407;28;20047;-76
2021/12/21 06:54:33;;;;;;;11.68;9.25;;;;;;;18.38;41.04;101844.03;4973555;28;20486;-76
2021/12/21 06:57:01;;;;;;;9.27;8.30;;;;;;;18.39;40.92;101839.53;4973623;28;20062;-75
2021/12/21 06:59:28;;;;;;;9.52;8.43;;;;;;;18.40;40.90;101841.28;4957656;28;20055;-76
2021/12/21 07:01:56;;;;;;;10.05;8.70;;;;;;;18.40;40.90;101843.94;5069695;28;20059;-76
2021/12/21 07:04:24;;;;;;;9.85;8.85;;;;;;;18.41;40.75;101849.19;5074277;28;20050;-76
2021/12/21 07:06:53;;;;;;;9.60;8.48;;;;;;;18.40;41.06;101844.81;5074566;28;20429;-76
2021/12/21 07:09:35;;;;;;;8.85;7.95;;;;;;;18.42;40.99;101858.09;5056591;28;20041;-76
2021/12/21 07:20:21;;;;;;;9.52;8.52;;;;;;;18.40;40.89;101865.41;5074824;28;20051;-86
2021/12/21 07:22:49;;;;;;;9.93;8.93;;;;;;;18.40;41.13;101865.41;5075106;28;20047;-86
2021/12/21 07:25:16;;;;;;;9.98;8.65;;;;;;;18.40;41.09;101868.09;5073927;28;20044;-86
2021/12/21 07:27:44;;;;;;;9.85;8.85;;;;;;;18.40;40.97;101870.75;5075277;28;20045;-86
2021/12/21 07:30:11;;;;;;;9.75;8.75;;;;;;;18.40;40.93;101865.41;5075618;28;20044;-89
2021/12/21 07:32:39;;;;;;;10.52;8.02;;;;;;;18.40;41.03;101865.41;5076209;28;20045;-89
2021/12/21 07:35:07;;;;;;;9.80;8.77;;;;;;;18.39;41.13;101858.28;5075883;28;20044;-90
2021/12/21 07:37:35;;;;;;;9.93;8.93;;;;;;;18.38;41.33;101865.47;5056068;28;20060;-91
2021/12/21 07:40:04;;;;;;;8.82;7.95;;;;;;;18.38;41.31;101868.16;5056025;28;20120;-89
2021/12/21 07:42:32;;;;;;;9.77;8.50;;;;;;;18.37;41.35;101871.81;5053391;28;20041;-89
2021/12/21 07:44:59;;;;;;;9.05;7.45;;;;;;;18.38;41.37;101875.34;5054813;28;20404;-88
2021/12/21 07:47:27;;;;;;;11.70;8.40;;;;;;;18.37;41.70;101884.38;5047374;28;20063;-89
2021/12/21 07:49:55;;;;;;;9.32;8.13;;;;;;;18.36;41.61;101883.50;5074964;28;20048;-88
2021/12/21 07:52:23;;;;;;;9.10;8.20;;;;;;;18.35;41.75;101884.47;5075038;28;20052;-88
2021/12/21 07:54:50;;;;;;;11.25;8.77;;;;;;;18.33;41.64;101878.34;5075584;28;20052;-89
2021/12/21 07:57:17;;;;;;;10.82;8.02;;;;;;;18.32;41.77;101879.31;5074315;28;20036;-88
2021/12/21 07:59:45;;;;;;;9.02;7.90;;;;;;;18.32;41.69;101881.97;5058067;28;20040;-91
2021/12/21 08:02:13;;;;;;;11.68;8.52;;;;;;;18.32;42.13;101881.97;5075057;28;20048;-91
2021/12/21 08:04:43;;;;;;;9.65;8.15;;;;;;;18.32;42.58;101883.81;5075837;28;20043;-91
2021/12/21 08:07:15;;;;;;;10.45;8.85;;;;;;;18.32;42.71;101898.06;5076367;28;20403;-89
2021/12/21 08:09:47;;;;;;;13.70;8.43;;;;;;;18.31;43.18;101887.44;5077657;28;20048;-91
2021/12/21 08:12:16;;;;;;;10.40;9.27;;;;;;;18.31;43.34;101898.16;5085090;28;20052;-91
2021/12/21 08:14:50;;;;;;;11.80;10.60;;;;;;;18.29;43.27;101898.25;5078996;28;20040;-91
2021/12/21 08:17:19;;;;;;;12.32;10.40;;;;;;;18.27;43.34;101897.47;5058498;28;20056;-89
2021/12/21 08:19:48;;;;;;;12.35;10.50;;;;;;;18.28;43.10;101901.91;5057455;28;20055;-90
2021/12/21 08:22:16;;;;;;;11.93;10.63;;;;;;;18.26;43.10;101899.31;5075789;28;20048;-92
2021/12/21 08:24:44;;;;;;;15.02;12.25;;;;;;;18.26;42.90;101902.00;5076290;28;20037;-95
2021/12/21 08:27:12;;;;;;;15.20;12.00;;;;;;;18.25;42.71;101905.63;5058192;28;20419;-94
2021/12/21 08:29:39;;;;;;;13.98;12.27;;;;;;;18.23;42.81;101896.84;5058052;28;20056;-92
2021/12/21 08:32:07;;;;;;;13.82;12.00;;;;;;;18.21;42.55;101893.38;5057347;28;20052;-92
2021/12/21 08:34:35;;;;;;;14.20;12.15;;;;;;;18.21;42.60;101903.25;5057558;28;20063;-93
2021/12/21 08:37:04;;;;;;;17.58;12.65;;;;;;;18.20;42.57;101905.06;5057979;28;20057;-94
2021/12/21 08:39:38;;;;;;;14.95;13.32;;;;;;;18.20;42.40;101907.75;5040665;28;20051;-91
2021/12/21 08:42:11;;;;;;;17.00;13.68;;;;;;;18.20;42.33;101913.13;5057182;28;20056;-89
2021/12/21 08:44:45;;;;;;;14.30;12.80;;;;;;;18.18;42.07;101914.16;5040498;28;20496;-95
2021/12/21 08:47:15;;;;;;;20.08;14.00;;;;;;;18.18;42.12;101915.03;5039875;28;20056;-91
2021/12/21 08:49:45;;;;;;;16.10;14.05;;;;;;;18.18;41.91;101916.84;5039486;28;20053;-93
2021/12/21 08:52:13;;;;;;;16.48;13.82;;;;;;;18.17;41.71;101909.78;5055871;28;20052;-95
2021/12/21 08:54:41;;;;;;;15.10;13.50;;;;;;;18.18;42.13;101920.38;5039135;28;20049;-95
2021/12/21 08:57:08;;;;;;;18.73;15.38;;;;;;;18.19;41.36;101916.75;5039042;28;20065;-95
2021/12/21 08:59:36;;;;;;;20.17;15.50;;;;;;;18.18;40.37;101920.38;5021309;28;20061;-88
2021/12/21 09:02:03;;;;;;;18.00;14.55;;;;;;;18.17;41.58;101921.34;5036810;28;20053;-90
2021/12/21 09:04:31;;;;;;;15.75;13.75;;;;;;;18.18;41.73;101925.75;5041651;28;20122;-92
2021/12/21 09:06:59;;;;;;;14.65;12.57;;;;;;;18.20;41.98;101925.66;5041848;28;20060;-91
2021/12/21 09:09:26;;;;;;;15.15;12.55;;;;;;;18.21;42.06;101925.56;5040940;28;20064;-92
2021/12/21 09:11:54;;;;;;;18.73;12.65;;;;;;;18.22;42.19;101931.78;5059557;28;20044;-94
2021/12/21 09:14:22;;;;;;;14.40;11.93;;;;;;;18.23;42.37;101928.13;5041496;28;20162;-94
2021/12/21 09:16:50;;;;;;;17.50;12.13;;;;;;;18.24;42.47;101932.56;5074951;28;20044;-92
2021/12/21 09:19:18;;;;;;;13.30;11.30;;;;;;;18.25;42.55;101939.63;5039304;28;20063;-89
2021/12/21 09:21:58;;;;;;;13.38;11.00;;;;;;;18.24;42.53;101933.41;5056216;28;20518;-89
2021/12/21 09:24:25;;;;;;;13.50;10.48;;;;;;;18.24;42.61;101925.38;5074571;28;20044;-93
2021/12/21 09:26:53;;;;;;;11.90;10.60;;;;;;;18.25;42.77;101929.75;5040242;28;20071;-93
2021/12/21 09:29:20;;;;;;;13.38;10.85;;;;;;;18.27;42.97;101924.28;5057608;28;20056;-90
2021/12/21 09:31:48;;;;;;;12.27;9.95;;;;;;;18.26;42.68;101920.75;5056256;28;20045;-89
2021/12/21 09:34:15;;;;;;;12.20;9.73;;;;;;;18.27;42.91;101919.81;5056861;28;20053;-91
2021/12/21 09:36:42;;;;;;;11.98;8.88;;;;;;;18.28;42.64;101920.66;5056457;28;20047;-92
2021/12/21 09:39:10;;;;;;;10.50;8.90;;;;;;;18.28;42.94;101924.22;5043335;28;20108;-89
2021/12/21 09:41:38;;;;;;;11.48;9.48;;;;;;;18.29;42.79;101917.88;5035803;28;20053;-85
2021/12/21 09:44:06;;;;;;;13.20;10.13;;;;;;;18.28;42.45;101926.88;5057283;28;20056;-83
2021/12/21 09:46:33;;;;;;;11.38;9.35;;;;;;;18.27;42.36;101919.81;5058950;28;20044;-85
2021/12/21 09:49:00;;;;;;;12.00;9.95;;;;;;;18.27;42.22;101919.81;5054784;28;20056;-85
2021/12/21 09:51:28;;;;;;;10.68;9.57;;;;;;;18.26;42.24;101920.75;5056356;28;20045;-85
2021/12/21 09:53:56;;;;;;;14.52;10.23;;;;;;;18.27;42.33;101925.19;5056112;28;20385;-87
2021/12/21 09:56:24;;;;;;;12.90;9.90;;;;;;;18.27;42.31;101922.50;5040117;28;20056;-86
2021/12/21 09:58:51;;;;;;;10.65;9.52;;;;;;;18.26;42.26;101922.56;5039656;28;20053;-88
2021/12/21 10:01:21;;;;;;;11.80;9.32;;;;;;;18.26;42.22;101926.13;5039659;28;20053;-85
2021/12/21 10:03:48;;;;;;;11.70;9.52;;;;;;;18.26;42.19;101926.13;5056442;28;20045;-84
2021/12/21 10:06:16;;;;;;;13.95;10.27;;;;;;;18.27;42.19;101918.94;5039682;28;20052;-87
2021/12/21 10:08:44;;;;;;;12.48;9.73;;;;;;;18.28;42.14;101918.00;5069426;28;20380;-87
2021/12/21 10:11:21;;;;;;;19.60;9.90;;;;;;;18.27;42.22;101925.19;5075641;28;20048;-87
2021/12/21 10:13:49;;;;;;;10.05;9.05;;;;;;;18.28;42.32;101926.03;5078443;28;20052;-87
2021/12/21 10:16:21;;;;;;;12.52;8.95;;;;;;;18.28;42.33;101926.03;5077149;28;20049;-87
2021/12/21 10:18:49;;;;;;;11.68;9.02;;;;;;;18.27;42.22;101916.25;5042542;28;20052;-88
2021/12/21 10:21:17;;;;;;;11.85;8.85;;;;;;;18.28;42.23;101912.63;5060083;28;20049;-87
2021/12/21 10:23:50;;;;;;;10.50;8.45;;;;;;;18.27;42.22;101909.09;5076951;28;20041;-90
2021/12/21 10:26:22;;;;;;;;;;;;;;;18.28;42.33;101905.44;5059683;28;20052;-88
2021/12/21 10:28:58;;;;;;;10.40;8.73;;;;;;;18.29;42.36;101909.84;5076556;28;19920;-87
2021/12/21 10:31:30;;;;;;;12.35;9.25;;;;;;;18.29;42.43;101906.31;5076243;28;20063;-86
2021/12/21 10:33:59;;;;;;;10.48;8.57;;;;;;;18.28;42.28;101894.72;5076102;28;20052;-88
2021/12/21 10:36:29;;;;;;;12.35;9.27;;;;;;;18.28;42.26;101894.72;5076510;28;20423;-89
2021/12/21 10:39:01;;;;;;;10.10;9.07;;;;;;;18.27;42.41;101890.31;5076701;28;20488;-88
2021/12/21 10:41:37;;;;;;;10.73;9.50;;;;;;;18.29;42.32;101895.56;5077620;28;20044;-90
2021/12/21 10:44:08;;;;;;;11.35;8.95;;;;;;;18.29;42.42;101895.56;5077455;28;20057;-94
2021/12/21 10:46:38;;;;;;;10.68;8.90;;;;;;;18.28;42.26;101894.72;5062102;28;20045;-93
2021/12/21 10:49:28;;;;;;;10.73;8.50;;;;;;;18.28;42.61;101888.50;5057667;28;20421;-93
2021/12/21 10:52:04;;;;;;;10.35;8.88;;;;;;;18.29;42.13;101891.06;5058309;28;20053;-91
2021/12/21 10:54:47;;;;;;;12.88;8.48;;;;;;;18.32;41.98;101890.03;5063752;28;20056;-88
2021/12/21 10:57:16;;;;;;;10.20;8.40;;;;;;;18.32;42.07;101886.50;5063204;28;20048;-89
2021/12/21 10:59:47;;;;;;;8.35;7.53;;;;;;;18.32;41.99;101873.09;5078980;28;20055;-89
2021/12/21 11:02:23;;;;;;;11.40;8.80;;;;;;;18.31;42.11;101882.94;5081260;28;20052;-96
2021/12/21 11:04:56;;;;;;;8.45;7.60;;;;;;;18.29;42.08;101874.13;5080577;28;20052;-95
2021/12/21 11:10:00;;;;;;;9.50;8.45;;;;;;;18.29;42.10;101874.13;5098143;28;20055;-92
2021/12/21 11:12:29;;;;;;;8.95;8.05;;;;;;;18.29;41.88;101869.63;5062433;28;20067;-93
2021/12/21 11:15:00;;;;;;;10.55;9.45;;;;;;;18.28;42.01;101861.69;5062820;28;20070;-90
2021/12/21 11:17:32;;;;;;;8.88;7.72;;;;;;;18.30;41.87;101865.13;5097476;28;20032;-94
2021/12/21 11:20:00;;;;;;;10.40;8.45;;;;;;;18.31;41.96;101857.94;5063241;28;20048;-89
2021/12/21 11:22:28;;;;;;;9.35;8.18;;;;;;;18.32;42.11;101857.00;5080094;28;20048;-96
2021/12/21 11:24:58;;;;;;;9.93;8.75;;;;;;;18.33;41.83;101858.72;5063942;28;20051;-95
2021/12/21 11:27:32;;;;;;;12.63;8.35;;;;;;;18.33;41.73;101859.56;5102309;28;20051;-95
2021/12/21 11:30:02;;;;;;;9.07;8.18;;;;;;;18.33;42.03;101848.84;5080141;28;20052;-95
2021/12/21 11:32:32;;;;;;;17.75;8.77;;;;;;;18.33;42.07;101850.66;5078650;28;20048;-96
2021/12/21 11:37:48;;;;;;;9.30;8.40;;;;;;;18.32;41.97;101846.28;5085404;28;20059;-95
2021/12/21 11:40:22;;;;;;;8.40;7.28;;;;;;;18.31;41.97;101841.84;5081818;28;20063;-90
2021/12/21 11:42:52;;;;;;;10.20;8.20;;;;;;;18.32;42.07;101840.91;5078106;28;20060;-88
2021/12/21 11:45:39;;;;;;;10.18;8.00;;;;;;;18.31;41.92;101836.50;5097945;28;20056;-96
2021/12/21 11:48:55;;;;;;;8.60;7.65;;;;;;;18.31;42.09;101833.81;5064091;28;20486;-96
2021/12/21 11:51:25;;;;;;;9.48;8.48;;;;;;;18.31;41.87;101829.34;4978386;28;20074;-96
2021/12/21 11:53:54;;;;;;;9.52;8.45;;;;;;;18.32;41.99;101830.19;5005019;28;20054;-96
2021/12/21 11:56:25;;;;;;;8.32;7.53;;;;;;;18.32;41.96;101825.69;4983090;28;20058;-96
2021/12/21 11:58:55;;;;;;;10.20;8.23;;;;;;;18.31;41.99;101823.09;4997160;28;20510;-93
2021/12/21 12:01:28;;;;;;;9.50;8.48;;;;;;;18.31;41.88;101821.28;4995701;28;20114;-92
2021/12/21 12:04:06;;;;;;;10.27;7.82;;;;;;;18.32;41.90;101825.69;5002196;28;20042;-93
2021/12/21 12:06:53;;;;;;;9.32;7.80;;;;;;;18.32;41.88;101816.78;5002047;28;20046;-91
2021/12/21 12:09:28;;;;;;;9.52;7.97;;;;;;;18.33;41.83;101819.34;4980595;28;20057;-91
2021/12/21 12:12:15;;;;;;;10.40;7.93;;;;;;;18.34;42.17;101815.72;4995042;28;20143;-91
2021/12/21 12:14:46;;;;;;;9.30;7.55;;;;;;;18.35;42.55;101803.16;4977810;28;20185;-91
2021/12/21 12:17:18;;;;;;;8.88;7.50;;;;;;;18.36;42.43;101805.75;4993070;28;20054;-91
2021/12/21 12:20:04;;;;;;;19.58;17.48;;;;;;;18.28;39.15;101811.63;4993534;28;20049;-92
2021/12/21 12:22:37;;;;;;;27.08;23.25;;;;;;;18.02;38.84;101801.72;4997180;28;20518;-96
2021/12/21 12:25:15;;;;;;;15.93;11.27;;;;;;;17.96;43.95;101800.31;4996139;28;20498;-90
2021/12/21 12:27:46;;;;;;;13.43;10.43;;;;;;;17.99;45.99;101799.28;5021779;28;20056;-90